Weather Forecast for Al Maktoum Airport 
Saturday, June 24, 2017 (20:37 UTC)
Al Maktoum International Airport
Last Updated: --/--/---- (--:--Z)
Wind Dir/Speed: --- --
Temperature: --.-
Rel. Humidity: ---
Pressure: ----
Visibility: ----
  • METAR OMDW 242030Z 18003KT 160V230 CAVOK 33/25 Q0999 NOSIG=
DWC AIRPORT WEATHER FORECAST FOR 30 HOUR:
DWC TAF:
TAF OMDW 241700Z 2418/2600 19005KT CAVOK 
 BECMG 2507/2509 30013KT 
 BECMG 2516/2518 16005KT=
VALID FROM:
2017-06-24 18:00Z
VALID TILL:
2017-06-26 00:00Z
SURFACE WIND:
S'LY 05KT

BECOMING NW'LY 13KT FROM 0700Z-0900Z SUNDAY

BECOMING SW'LY 05KT FROM 1600Z-1800Z SUNDAY.
VISIBILITY:
07-12 KM,
10% PROBABILITY OF 3000 M BETWEEN 0100Z-0400Z SUNDAY.
WEATHER:
FINE,
10% PROBABILITY OF HAZE BETWEEN 0100Z-0400Z SUNDAY.
CLOUD:
NIL SIGNIFICANT,
10% PROBABILITY OF BROKEN STRATUS CLOUD BASE 0500 FT TOPS TO 1500 FT BETWEEN 0100Z-0400Z SUNDAY.
TEMPERATURE:
MIN TEMPERATURE 28°C AROUND 0200Z SUNDAY

MAX TEMPERATURE 42°C AROUND 0800Z SUNDAY.
HUMIDITY:
MAX HUMIDITY 90% AROUND 0200Z SUNDAY

MIN HUMIDITY 20% AROUND 0800Z SUNDAY.
WIND SHEAR:
NIL SIGNIFICANT.
TEMPERATURE INVERSION:
RISK OF AN 08°C SURFACE TEMPERATURE INVERSION BETWEEN 2300Z TODAY AND 0300Z SUNDAY.
COMMENTS:
NIL.